sensor_id;sensor_type;location;lat;lon;timestamp;pressure;altitude;pressure_sealevel;temperature;humidity
22031;BME280;11179;52.106;21.024;2022-12-10T00:00:22;99521.41;;;0.32;74.42
22031;BME280;11179;52.106;21.024;2022-12-10T00:02:47;99526.59;;;0.34;74.37
22031;BME280;11179;52.106;21.024;2022-12-10T00:05:13;99523.47;;;0.30;74.27
22031;BME280;11179;52.106;21.024;2022-12-10T00:07:38;99524.50;;;0.29;74.19
22031;BME280;11179;52.106;21.024;2022-12-10T00:10:03;99517.66;;;0.33;74.32
22031;BME280;11179;52.106;21.024;2022-12-10T00:12:29;99502.13;;;0.15;74.32
22031;BME280;11179;52.106;21.024;2022-12-10T00:14:54;99516.66;;;0.21;74.19
22031;BME280;11179;52.106;21.024;2022-12-10T00:17:20;99506.28;;;0.18;74.47
22031;BME280;11179;52.106;21.024;2022-12-10T00:19:45;99502.53;;;0.19;74.38
22031;BME280;11179;52.106;21.024;2022-12-10T00:22:10;99511.25;;;0.21;74.48
22031;BME280;11179;52.106;21.024;2022-12-10T00:24:36;99507.97;;;0.12;74.21
22031;BME280;11179;52.106;21.024;2022-12-10T00:27:01;99512.53;;;0.12;74.31
22031;BME280;11179;52.106;21.024;2022-12-10T00:29:26;99508.38;;;0.03;74.33
22031;BME280;11179;52.106;21.024;2022-12-10T00:31:52;99514.81;;;0.02;74.60
22031;BME280;11179;52.106;21.024;2022-12-10T00:34:17;99512.94;;;0.02;74.73
22031;BME280;11179;52.106;21.024;2022-12-10T00:36:45;99516.28;;;0.11;74.50
22031;BME280;11179;52.106;21.024;2022-12-10T00:39:13;99509.41;;;0.02;74.61
22031;BME280;11179;52.106;21.024;2022-12-10T00:41:39;99515.84;;;0.07;74.43
22031;BME280;11179;52.106;21.024;2022-12-10T00:44:05;99506.09;;;0.06;74.46
22031;BME280;11179;52.106;21.024;2022-12-10T00:46:30;99524.53;;;0.16;74.45
22031;BME280;11179;52.106;21.024;2022-12-10T00:48:58;99521.63;;;0.18;74.37
22031;BME280;11179;52.106;21.024;2022-12-10T00:51:25;99526.00;;;0.25;74.50
22031;BME280;11179;52.106;21.024;2022-12-10T00:53:53;99527.00;;;0.31;74.29
22031;BME280;11179;52.106;21.024;2022-12-10T00:56:24;99511.22;;;0.28;74.23
22031;BME280;11179;52.106;21.024;2022-12-10T00:58:50;99524.72;;;0.34;74.25
22031;BME280;11179;52.106;21.024;2022-12-10T01:01:35;99524.31;;;0.37;74.47
22031;BME280;11179;52.106;21.024;2022-12-10T01:04:03;99522.44;;;0.31;74.14
22031;BME280;11179;52.106;21.024;2022-12-10T01:06:32;99511.84;;;0.30;74.39
22031;BME280;11179;52.106;21.024;2022-12-10T01:09:00;99523.47;;;0.37;74.20
22031;BME280;11179;52.106;21.024;2022-12-10T01:11:30;99521.16;;;0.40;74.31
22031;BME280;11179;52.106;21.024;2022-12-10T01:13:55;99524.72;;;0.34;74.27
22031;BME280;11179;52.106;21.024;2022-12-10T01:16:21;99519.72;;;0.31;74.34
22031;BME280;11179;52.106;21.024;2022-12-10T01:18:47;99516.22;;;0.31;74.43
22031;BME280;11179;52.106;21.024;2022-12-10T01:21:16;99507.91;;;0.32;74.52
22031;BME280;11179;52.106;21.024;2022-12-10T01:23:43;99497.09;;;0.39;74.38
22031;BME280;11179;52.106;21.024;2022-12-10T01:26:12;99500.16;;;0.42;74.33
22031;BME280;11179;52.106;21.024;2022-12-10T01:28:39;99487.91;;;0.46;74.46
22031;BME280;11179;52.106;21.024;2022-12-10T01:31:08;99482.50;;;0.40;74.31
22031;BME280;11179;52.106;21.024;2022-12-10T01:33:49;99488.94;;;0.45;74.19
22031;BME280;11179;52.106;21.024;2022-12-10T01:36:28;99484.63;;;0.38;74.30
22031;BME280;11179;52.106;21.024;2022-12-10T01:38:54;99487.13;;;0.33;74.31
22031;BME280;11179;52.106;21.024;2022-12-10T01:41:21;99493.16;;;0.28;74.06
22031;BME280;11179;52.106;21.024;2022-12-10T01:46:39;99484.63;;;0.38;74.23
22031;BME280;11179;52.106;21.024;2022-12-10T01:49:07;99488.75;;;0.40;74.17
22031;BME280;11179;52.106;21.024;2022-12-10T01:51:36;99489.16;;;0.44;73.97
22031;BME280;11179;52.106;21.024;2022-12-10T01:54:04;99477.94;;;0.40;74.06
22031;BME280;11179;52.106;21.024;2022-12-10T01:56:31;99488.31;;;0.50;74.09
22031;BME280;11179;52.106;21.024;2022-12-10T01:59:00;99477.72;;;0.42;74.06
22031;BME280;11179;52.106;21.024;2022-12-10T02:09:27;99496.38;;;0.57;73.86
22031;BME280;11179;52.106;21.024;2022-12-10T02:12:11;99491.59;;;0.59;74.06
22031;BME280;11179;52.106;21.024;2022-12-10T02:14:53;99492.22;;;0.61;74.00
22031;BME280;11179;52.106;21.024;2022-12-10T02:22:19;99488.28;;;0.57;73.77
22031;BME280;11179;52.106;21.024;2022-12-10T02:24:47;99467.34;;;0.45;73.92
22031;BME280;11179;52.106;21.024;2022-12-10T02:27:29;99481.66;;;0.53;73.82
22031;BME280;11179;52.106;21.024;2022-12-10T02:29:57;99472.13;;;0.43;73.91
22031;BME280;11179;52.106;21.024;2022-12-10T02:32:29;99496.84;;;0.47;73.88
22031;BME280;11179;52.106;21.024;2022-12-10T02:34:58;99486.88;;;0.41;73.84
22031;BME280;11179;52.106;21.024;2022-12-10T02:37:29;99485.00;;;0.41;74.08
22031;BME280;11179;52.106;21.024;2022-12-10T02:39:58;99472.59;;;0.34;73.78
22031;BME280;11179;52.106;21.024;2022-12-10T02:42:26;99477.16;;;0.33;73.92
22031;BME280;11179;52.106;21.024;2022-12-10T02:44:55;99471.34;;;0.30;74.14
22031;BME280;11179;52.106;21.024;2022-12-10T02:47:21;99479.59;;;0.41;73.89
22031;BME280;11179;52.106;21.024;2022-12-10T02:49:50;99482.09;;;0.43;73.75
22031;BME280;11179;52.106;21.024;2022-12-10T02:52:18;99488.94;;;0.45;73.88
22031;BME280;11179;52.106;21.024;2022-12-10T02:54:49;99490.19;;;0.49;73.81
22031;BME280;11179;52.106;21.024;2022-12-10T03:00:06;99477.94;;;0.40;73.67
22031;BME280;11179;52.106;21.024;2022-12-10T03:06:01;99481.31;;;0.36;73.78
22031;BME280;11179;52.106;21.024;2022-12-10T03:11:14;99483.19;;;0.35;73.77
22031;BME280;11179;52.106;21.024;2022-12-10T03:16:14;99484.22;;;0.34;73.83
22031;BME280;11179;52.106;21.024;2022-12-10T03:18:40;99475.69;;;0.37;73.87
22031;BME280;11179;52.106;21.024;2022-12-10T03:21:06;99473.22;;;0.36;73.87
22031;BME280;11179;52.106;21.024;2022-12-10T03:23:36;99484.00;;;0.29;73.61
22031;BME280;11179;52.106;21.024;2022-12-10T03:26:04;99501.47;;;0.33;73.88
22031;BME280;11179;52.106;21.024;2022-12-10T03:28:34;99486.94;;;0.28;73.71
22031;BME280;11179;52.106;21.024;2022-12-10T03:31:03;99494.41;;;0.32;73.80
22031;BME280;11179;52.106;21.024;2022-12-10T03:33:29;99498.50;;;0.41;73.77
22031;BME280;11179;52.106;21.024;2022-12-10T03:35:56;99486.75;;;0.23;73.70
22031;BME280;11179;52.106;21.024;2022-12-10T03:38:22;99490.91;;;0.25;73.67
22031;BME280;11179;52.106;21.024;2022-12-10T03:40:47;99495.06;;;0.21;73.73
22031;BME280;11179;52.106;21.024;2022-12-10T03:43:13;99482.59;;;0.13;74.07
22031;BME280;11179;52.106;21.024;2022-12-10T03:45:40;99491.75;;;0.19;73.93
22031;BME280;11179;52.106;21.024;2022-12-10T03:48:05;99492.56;;;0.26;73.82
22031;BME280;11179;52.106;21.024;2022-12-10T03:50:31;99491.69;;;0.32;73.92
22031;BME280;11179;52.106;21.024;2022-12-10T03:52:56;99486.50;;;0.31;73.90
22031;BME280;11179;52.106;21.024;2022-12-10T03:55:21;99481.53;;;0.28;73.79
22031;BME280;11179;52.106;21.024;2022-12-10T03:57:47;99491.28;;;0.35;73.83
22031;BME280;11179;52.106;21.024;2022-12-10T04:00:13;99480.53;;;0.22;73.56
22031;BME280;11179;52.106;21.024;2022-12-10T04:02:38;99474.28;;;0.22;73.90
22031;BME280;11179;52.106;21.024;2022-12-10T04:05:04;99489.41;;;0.36;74.07
22031;BME280;11179;52.106;21.024;2022-12-10T04:07:31;99478.44;;;0.24;73.92
22031;BME280;11179;52.106;21.024;2022-12-10T04:09:57;99485.88;;;0.29;73.84
22031;BME280;11179;52.106;21.024;2022-12-10T04:12:22;99488.59;;;0.29;73.90
22031;BME280;11179;52.106;21.024;2022-12-10T04:14:47;99481.16;;;0.24;73.81
22031;BME280;11179;52.106;21.024;2022-12-10T04:17:32;99489.41;;;0.29;73.58
22031;BME280;11179;52.106;21.024;2022-12-10T04:19:58;99495.84;;;0.28;73.98
22031;BME280;11179;52.106;21.024;2022-12-10T04:22:24;99500.22;;;0.29;73.86
22031;BME280;11179;52.106;21.024;2022-12-10T04:25:10;99483.41;;;0.27;73.72
22031;BME280;11179;52.106;21.024;2022-12-10T04:27:55;99488.63;;;0.22;73.61
22031;BME280;11179;52.106;21.024;2022-12-10T04:30:20;99493.03;;;0.10;73.62
22031;BME280;11179;52.106;21.024;2022-12-10T04:32:46;99494.69;;;0.04;73.73
22031;BME280;11179;52.106;21.024;2022-12-10T04:35:11;99499.25;;;0.04;73.96
22031;BME280;11179;52.106;21.024;2022-12-10T04:37:36;99494.25;;;0.01;73.89
22031;BME280;11179;52.106;21.024;2022-12-10T04:40:03;99490.34;;;-0.03;73.83
22031;BME280;11179;52.106;21.024;2022-12-10T04:42:29;99492.00;;;-0.02;74.04
22031;BME280;11179;52.106;21.024;2022-12-10T04:44:54;99491.38;;;-0.04;73.92
22031;BME280;11179;52.106;21.024;2022-12-10T04:47:19;99492.19;;;0.03;73.77
22031;BME280;11179;52.106;21.024;2022-12-10T04:49:45;99494.25;;;0.07;73.62
22031;BME280;11179;52.106;21.024;2022-12-10T04:52:12;99508.56;;;0.14;73.58
22031;BME280;11179;52.106;21.024;2022-12-10T04:54:39;99502.13;;;0.22;73.65
22031;BME280;11179;52.106;21.024;2022-12-10T04:57:05;99484.06;;;0.16;73.60
22031;BME280;11179;52.106;21.024;2022-12-10T04:59:31;99488.66;;;0.09;73.54
22031;BME280;11179;52.106;21.024;2022-12-10T05:01:56;99505.28;;;0.06;73.57
22031;BME280;11179;52.106;21.024;2022-12-10T05:04:21;99506.50;;;0.03;73.56
22031;BME280;11179;52.106;21.024;2022-12-10T05:06:48;99506.34;;;-0.02;73.33
22031;BME280;11179;52.106;21.024;2022-12-10T05:09:13;99509.88;;;-0.01;73.78
22031;BME280;11179;52.106;21.024;2022-12-10T05:11:39;99508.78;;;-0.00;73.72
22031;BME280;11179;52.106;21.024;2022-12-10T05:14:05;99516.31;;;-0.02;73.81
22031;BME280;11179;52.106;21.024;2022-12-10T05:16:32;99505.72;;;-0.04;73.68
22031;BME280;11179;52.106;21.024;2022-12-10T05:18:58;99507.16;;;-0.01;73.64
22031;BME280;11179;52.106;21.024;2022-12-10T05:21:26;99522.50;;;0.05;73.50
22031;BME280;11179;52.106;21.024;2022-12-10T05:24:16;99522.28;;;-0.00;73.44
22031;BME280;11179;52.106;21.024;2022-12-10T05:26:42;99521.69;;;-0.02;73.63
22031;BME280;11179;52.106;21.024;2022-12-10T05:29:07;99523.34;;;-0.01;73.78
22031;BME280;11179;52.106;21.024;2022-12-10T05:31:33;99526.03;;;0.05;73.91
22031;BME280;11179;52.106;21.024;2022-12-10T05:33:58;99525.59;;;0.15;73.65
22031;BME280;11179;52.106;21.024;2022-12-10T05:36:26;99529.53;;;0.26;73.49
22031;BME280;11179;52.106;21.024;2022-12-10T05:38:54;99520.34;;;0.27;73.55
22031;BME280;11179;52.106;21.024;2022-12-10T05:41:24;99531.16;;;0.33;73.27
22031;BME280;11179;52.106;21.024;2022-12-10T05:43:52;99535.50;;;0.34;73.51
22031;BME280;11179;52.106;21.024;2022-12-10T05:46:24;99522.84;;;0.28;73.29
22031;BME280;11179;52.106;21.024;2022-12-10T05:48:50;99536.81;;;0.25;73.14
22031;BME280;11179;52.106;21.024;2022-12-10T05:51:19;99529.94;;;0.23;73.50
22031;BME280;11179;52.106;21.024;2022-12-10T05:53:45;99536.38;;;0.22;73.52
22031;BME280;11179;52.106;21.024;2022-12-10T05:56:13;99534.09;;;0.25;73.45
22031;BME280;11179;52.106;21.024;2022-12-10T05:58:41;99534.94;;;0.26;73.49
22031;BME280;11179;52.106;21.024;2022-12-10T06:01:09;99532.84;;;0.21;73.33
22031;BME280;11179;52.106;21.024;2022-12-10T06:03:35;99533.47;;;0.23;73.36
22031;BME280;11179;52.106;21.024;2022-12-10T06:06:00;99521.44;;;0.19;73.27
22031;BME280;11179;52.106;21.024;2022-12-10T06:08:26;99538.00;;;0.29;73.49
22031;BME280;11179;52.106;21.024;2022-12-10T06:10:51;99541.56;;;0.23;73.36
22031;BME280;11179;52.106;21.024;2022-12-10T06:13:17;99536.59;;;0.20;73.24
22031;BME280;11179;52.106;21.024;2022-12-10T06:15:42;99530.78;;;0.17;73.36
22031;BME280;11179;52.106;21.024;2022-12-10T06:18:08;99532.03;;;0.21;73.39
22031;BME280;11179;52.106;21.024;2022-12-10T06:20:34;99525.16;;;0.18;73.40
22031;BME280;11179;52.106;21.024;2022-12-10T06:23:02;99533.06;;;0.26;73.50
22031;BME280;11179;52.106;21.024;2022-12-10T06:25:27;99540.34;;;0.19;73.30
22031;BME280;11179;52.106;21.024;2022-12-10T06:27:53;99542.81;;;0.14;73.29
22031;BME280;11179;52.106;21.024;2022-12-10T06:30:18;99548.25;;;0.01;73.45
22031;BME280;11179;52.106;21.024;2022-12-10T06:32:43;99541.63;;;-0.03;73.42
22031;BME280;11179;52.106;21.024;2022-12-10T06:35:09;99547.03;;;-0.03;73.67
22031;BME280;11179;52.106;21.024;2022-12-10T06:37:35;99567.13;;;0.14;73.58
22031;BME280;11179;52.106;21.024;2022-12-10T06:40:01;99568.38;;;0.18;73.63
22031;BME280;11179;52.106;21.024;2022-12-10T06:42:26;99557.16;;;0.21;73.30
22031;BME280;11179;52.106;21.024;2022-12-10T06:44:52;99559.00;;;0.27;73.30
22031;BME280;11179;52.106;21.024;2022-12-10T06:47:17;99563.59;;;0.20;73.27
22031;BME280;11179;52.106;21.024;2022-12-10T06:49:42;99557.56;;;0.18;73.25
22031;BME280;11179;52.106;21.024;2022-12-10T06:52:08;99580.00;;;0.25;73.11
22031;BME280;11179;52.106;21.024;2022-12-10T06:54:33;99576.88;;;0.22;73.43
22031;BME280;11179;52.106;21.024;2022-12-10T06:56:58;99564.00;;;0.17;73.41
22031;BME280;11179;52.106;21.024;2022-12-10T06:59:24;99566.06;;;0.28;73.54
22031;BME280;11179;52.106;21.024;2022-12-10T07:01:50;99553.63;;;0.21;73.44
22031;BME280;11179;52.106;21.024;2022-12-10T07:04:15;99571.44;;;0.28;73.52
22031;BME280;11179;52.106;21.024;2022-12-10T07:06:41;99575.19;;;0.34;73.54
22031;BME280;11179;52.106;21.024;2022-12-10T07:09:06;99575.59;;;0.31;73.30
22031;BME280;11179;52.106;21.024;2022-12-10T07:11:32;99575.41;;;0.39;73.39
22031;BME280;11179;52.106;21.024;2022-12-10T07:13:58;99565.22;;;0.34;73.18
22031;BME280;11179;52.106;21.024;2022-12-10T07:16:26;99568.09;;;0.46;73.22
22031;BME280;11179;52.106;21.024;2022-12-10T07:18:52;99570.16;;;0.44;73.28
22031;BME280;11179;52.106;21.024;2022-12-10T07:21:30;99558.75;;;0.42;73.22
22031;BME280;11179;52.106;21.024;2022-12-10T07:23:58;99574.53;;;0.52;73.37
22031;BME280;11179;52.106;21.024;2022-12-10T07:26:25;99579.09;;;0.51;73.24
22031;BME280;11179;52.106;21.024;2022-12-10T07:28:51;99570.59;;;0.41;73.05
22031;BME280;11179;52.106;21.024;2022-12-10T07:31:16;99576.63;;;0.43;73.15
22031;BME280;11179;52.106;21.024;2022-12-10T07:33:41;99571.22;;;0.43;73.33
22031;BME280;11179;52.106;21.024;2022-12-10T07:36:09;99588.22;;;0.57;73.44
22031;BME280;11179;52.106;21.024;2022-12-10T07:38:35;99586.53;;;0.62;73.29
22031;BME280;11179;52.106;21.024;2022-12-10T07:41:05;99575.53;;;0.57;73.06
22031;BME280;11179;52.106;21.024;2022-12-10T07:43:33;99588.03;;;0.52;73.21
22031;BME280;11179;52.106;21.024;2022-12-10T07:46:04;99597.59;;;0.47;72.96
22031;BME280;11179;52.106;21.024;2022-12-10T07:48:29;99595.50;;;0.49;73.05
22031;BME280;11179;52.106;21.024;2022-12-10T07:50:56;99583.66;;;0.44;73.00
22031;BME280;11179;52.106;21.024;2022-12-10T07:53:22;99577.25;;;0.38;73.19
22031;BME280;11179;52.106;21.024;2022-12-10T07:55:47;99579.34;;;0.36;73.37
22031;BME280;11179;52.106;21.024;2022-12-10T07:58:13;99573.28;;;0.41;73.46
22031;BME280;11179;52.106;21.024;2022-12-10T08:00:38;99574.53;;;0.52;73.49
22031;BME280;11179;52.106;21.024;2022-12-10T08:03:03;99568.09;;;0.53;73.17
22031;BME280;11179;52.106;21.024;2022-12-10T08:05:29;99568.09;;;0.53;73.29
22031;BME280;11179;52.106;21.024;2022-12-10T08:07:54;99565.59;;;0.51;73.23
22031;BME280;11179;52.106;21.024;2022-12-10T08:10:19;99572.66;;;0.52;73.29
22031;BME280;11179;52.106;21.024;2022-12-10T08:12:44;99556.09;;;0.35;73.36
22031;BME280;11179;52.106;21.024;2022-12-10T08:15:10;99555.66;;;0.32;73.16
22031;BME280;11179;52.106;21.024;2022-12-10T08:17:35;99556.09;;;0.35;73.67
22031;BME280;11179;52.106;21.024;2022-12-10T08:20:01;99563.09;;;0.43;73.46
22031;BME280;11179;52.106;21.024;2022-12-10T08:22:26;99549.81;;;0.41;73.59
22031;BME280;11179;52.106;21.024;2022-12-10T08:24:51;99547.94;;;0.42;73.47
22031;BME280;11179;52.106;21.024;2022-12-10T08:27:17;99564.53;;;0.59;73.44
22031;BME280;11179;52.106;21.024;2022-12-10T08:29:42;99569.47;;;0.68;73.36
22031;BME280;11179;52.106;21.024;2022-12-10T08:32:07;99571.31;;;0.74;73.16
22031;BME280;11179;52.106;21.024;2022-12-10T08:34:32;99570.28;;;0.69;73.25
22031;BME280;11179;52.106;21.024;2022-12-10T08:36:58;99586.72;;;0.74;73.16
22031;BME280;11179;52.106;21.024;2022-12-10T08:39:23;99582.13;;;0.74;73.03
22031;BME280;11179;52.106;21.024;2022-12-10T08:41:49;99586.28;;;0.77;73.26
22031;BME280;11179;52.106;21.024;2022-12-10T08:44:14;99581.31;;;0.67;73.17
22031;BME280;11179;52.106;21.024;2022-12-10T08:46:39;99592.53;;;0.77;73.34
22031;BME280;11179;52.106;21.024;2022-12-10T08:49:05;99589.16;;;0.82;73.22
22031;BME280;11179;52.106;21.024;2022-12-10T08:51:32;99592.69;;;0.89;73.20
22031;BME280;11179;52.106;21.024;2022-12-10T08:53:57;99577.94;;;0.85;72.96
22031;BME280;11179;52.106;21.024;2022-12-10T08:56:23;99588.31;;;0.88;72.93
22031;BME280;11179;52.106;21.024;2022-12-10T08:58:48;99580.41;;;0.86;73.00
22031;BME280;11179;52.106;21.024;2022-12-10T09:01:16;99575.84;;;0.87;72.90
22031;BME280;11179;52.106;21.024;2022-12-10T09:03:42;99579.56;;;0.93;72.86
22031;BME280;11179;52.106;21.024;2022-12-10T09:06:12;99595.13;;;0.97;72.89
22031;BME280;11179;52.106;21.024;2022-12-10T09:08:38;99583.31;;;0.92;72.98
22031;BME280;11179;52.106;21.024;2022-12-10T09:11:05;99593.66;;;1.01;73.07
22031;BME280;11179;52.106;21.024;2022-12-10T09:13:31;99594.91;;;1.05;72.96
22031;BME280;11179;52.106;21.024;2022-12-10T09:15:56;99590.34;;;0.99;72.63
22031;BME280;11179;52.106;21.024;2022-12-10T09:18:22;99589.50;;;0.99;72.70
22031;BME280;11179;52.106;21.024;2022-12-10T09:20:47;99592.00;;;1.00;72.78
22031;BME280;11179;52.106;21.024;2022-12-10T09:23:12;99591.56;;;1.03;72.82
22031;BME280;11179;52.106;21.024;2022-12-10T09:25:38;99587.78;;;1.11;72.70
22031;BME280;11179;52.106;21.024;2022-12-10T09:28:03;99593.19;;;1.17;72.77
22031;BME280;11179;52.106;21.024;2022-12-10T09:30:28;99579.47;;;1.12;72.52
22031;BME280;11179;52.106;21.024;2022-12-10T09:32:54;99592.13;;;1.18;72.47
22031;BME280;11179;52.106;21.024;2022-12-10T09:35:19;99586.47;;;1.20;72.43
22031;BME280;11179;52.106;21.024;2022-12-10T09:37:45;99587.31;;;1.20;72.55
22031;BME280;11179;52.106;21.024;2022-12-10T09:40:50;99587.38;;;1.14;72.18
22031;BME280;11179;52.106;21.024;2022-12-10T09:43:25;99589.84;;;1.15;72.23
22031;BME280;11179;52.106;21.024;2022-12-10T09:51:09;99599.22;;;1.06;72.34
22031;BME280;11179;52.106;21.024;2022-12-10T09:53:36;99592.44;;;0.97;72.61
22031;BME280;11179;52.106;21.024;2022-12-10T09:56:03;99602.81;;;1.00;72.67
22031;BME280;11179;52.106;21.024;2022-12-10T09:58:30;99588.28;;;0.95;72.52
22031;BME280;11179;52.106;21.024;2022-12-10T10:01:01;99613.22;;;0.97;72.69
22031;BME280;11179;52.106;21.024;2022-12-10T10:03:35;99618.25;;;0.86;72.43
22031;BME280;11179;52.106;21.024;2022-12-10T10:06:03;99616.81;;;0.84;72.79
22031;BME280;11179;52.106;21.024;2022-12-10T10:08:41;99601.88;;;0.75;72.53
22031;BME280;11179;52.106;21.024;2022-12-10T10:11:13;99616.63;;;0.79;72.66
22031;BME280;11179;52.106;21.024;2022-12-10T10:13:45;99616.00;;;0.77;72.52
22031;BME280;11179;52.106;21.024;2022-12-10T10:16:23;99620.53;;;0.83;72.59
22031;BME280;11179;52.106;21.024;2022-12-10T10:21:24;99617.00;;;0.89;72.43
22031;BME280;11179;52.106;21.024;2022-12-10T10:23:50;99618.22;;;0.93;72.34
22031;BME280;11179;52.106;21.024;2022-12-10T10:26:16;99611.34;;;0.97;72.32
22031;BME280;11179;52.106;21.024;2022-12-10T10:28:43;99608.41;;;1.05;72.28
22031;BME280;11179;52.106;21.024;2022-12-10T10:31:25;99602.19;;;0.98;72.11
22031;BME280;11179;52.106;21.024;2022-12-10T10:33:53;99618.59;;;1.03;72.14
22031;BME280;11179;52.106;21.024;2022-12-10T10:36:24;99599.91;;;1.02;72.18
22031;BME280;11179;52.106;21.024;2022-12-10T10:38:50;99589.50;;;1.05;72.24
22031;BME280;11179;52.106;21.024;2022-12-10T10:41:15;99602.34;;;1.10;72.13
22031;BME280;11179;52.106;21.024;2022-12-10T10:43:43;99596.09;;;1.16;72.17
22031;BME280;11179;52.106;21.024;2022-12-10T10:46:14;99596.50;;;1.19;72.08
22031;BME280;11179;52.106;21.024;2022-12-10T10:48:40;99574.91;;;1.06;72.07
22031;BME280;11179;52.106;21.024;2022-12-10T10:53:42;99572.88;;;1.02;72.28
22031;BME280;11179;52.106;21.024;2022-12-10T10:56:14;99567.00;;;1.11;72.34
22031;BME280;11179;52.106;21.024;2022-12-10T11:01:50;99572.09;;;1.33;72.36
22031;BME280;11179;52.106;21.024;2022-12-10T11:04:20;99558.50;;;1.39;72.13
22031;BME280;11179;52.106;21.024;2022-12-10T11:06:50;99572.56;;;1.48;71.80
22031;BME280;11179;52.106;21.024;2022-12-10T11:09:25;99564.56;;;1.35;72.01
22031;BME280;11179;52.106;21.024;2022-12-10T11:11:58;99562.06;;;1.33;71.99
22031;BME280;11179;52.106;21.024;2022-12-10T11:14:26;99568.97;;;1.29;71.85
22031;BME280;11179;52.106;21.024;2022-12-10T11:19:41;99549.94;;;1.11;72.16
22031;BME280;11179;52.106;21.024;2022-12-10T11:22:29;99548.69;;;1.13;71.88
22031;BME280;11179;52.106;21.024;2022-12-10T11:24:56;99544.53;;;1.11;71.84
22031;BME280;11179;52.106;21.024;2022-12-10T11:30:12;99538.81;;;1.26;71.84
22031;BME280;11179;52.106;21.024;2022-12-10T11:38:32;99535.78;;;1.15;71.50
22031;BME280;11179;52.106;21.024;2022-12-10T11:41:17;99550.25;;;1.28;71.45
22031;BME280;11179;52.106;21.024;2022-12-10T11:44:42;99541.72;;;1.31;71.53
22031;BME280;11179;52.106;21.024;2022-12-10T11:47:11;99544.63;;;1.29;71.39
22031;BME280;11179;52.106;21.024;2022-12-10T11:55:52;99553.22;;;1.19;71.33
22031;BME280;11179;52.106;21.024;2022-12-10T11:58:48;99547.44;;;1.09;71.44
22031;BME280;11179;52.106;21.024;2022-12-10T12:01:45;99542.72;;;0.98;71.42
22031;BME280;11179;52.106;21.024;2022-12-10T12:04:25;99552.50;;;0.99;71.48
22031;BME280;11179;52.106;21.024;2022-12-10T12:12:59;99572.06;;;0.95;71.28
22031;BME280;11179;52.106;21.024;2022-12-10T12:17:59;99577.44;;;1.01;71.09
22031;BME280;11179;52.106;21.024;2022-12-10T12:20:32;99575.59;;;0.95;71.20
22031;BME280;11179;52.106;21.024;2022-12-10T12:23:05;99581.22;;;0.94;71.12
22031;BME280;11179;52.106;21.024;2022-12-10T12:25:37;99572.50;;;0.92;71.36
22031;BME280;11179;52.106;21.024;2022-12-10T12:28:20;99571.63;;;0.98;71.33
22031;BME280;11179;52.106;21.024;2022-12-10T12:30:51;99568.94;;;0.98;71.08
22031;BME280;11179;52.106;21.024;2022-12-10T12:33:29;99562.69;;;0.97;71.02
22031;BME280;11179;52.106;21.024;2022-12-10T12:36:05;99557.47;;;1.02;70.98
22031;BME280;11179;52.106;21.024;2022-12-10T12:38:48;99564.53;;;1.03;70.92
22031;BME280;11179;52.106;21.024;2022-12-10T12:46:33;99576.13;;;1.10;71.08
22031;BME280;11179;52.106;21.024;2022-12-10T12:54:15;99581.75;;;1.09;71.09
22031;BME280;11179;52.106;21.024;2022-12-10T12:57:01;99598.13;;;1.20;70.95
22031;BME280;11179;52.106;21.024;2022-12-10T12:59:50;99601.09;;;1.12;71.02
22031;BME280;11179;52.106;21.024;2022-12-10T13:04:54;99591.38;;;0.98;71.23
22031;BME280;11179;52.106;21.024;2022-12-10T13:10:07;99609.41;;;1.11;71.49
22031;BME280;11179;52.106;21.024;2022-12-10T13:13:06;99608.78;;;1.15;71.33
22031;BME280;11179;52.106;21.024;2022-12-10T13:15:35;99611.50;;;1.09;71.17
22031;BME280;11179;52.106;21.024;2022-12-10T13:22:57;99620.28;;;1.04;71.33
22031;BME280;11179;52.106;21.024;2022-12-10T13:25:42;99632.13;;;1.03;71.04
22031;BME280;11179;52.106;21.024;2022-12-10T13:42:26;99630.63;;;1.07;71.24
22031;BME280;11179;52.106;21.024;2022-12-10T13:44:48;99631.47;;;1.08;71.24
22031;BME280;11179;52.106;21.024;2022-12-10T13:47:32;99642.75;;;0.98;70.92
22031;BME280;11179;52.106;21.024;2022-12-10T13:50:29;99626.16;;;0.88;71.14
22031;BME280;11179;52.106;21.024;2022-12-10T13:53:08;99629.31;;;0.78;71.29
22031;BME280;11179;52.106;21.024;2022-12-10T13:55:49;99627.00;;;0.82;71.34
22031;BME280;11179;52.106;21.024;2022-12-10T14:04:48;99642.81;;;0.78;71.13
22031;BME280;11179;52.106;21.024;2022-12-10T14:06:47;99627.91;;;0.63;71.38
22031;BME280;11179;52.106;21.024;2022-12-10T14:11:54;99637.41;;;0.78;71.41
22031;BME280;11179;52.106;21.024;2022-12-10T14:14:32;99631.34;;;0.83;71.32
22031;BME280;11179;52.106;21.024;2022-12-10T14:17:04;99619.97;;;0.74;71.19
22031;BME280;11179;52.106;21.024;2022-12-10T14:19:30;99626.59;;;0.78;71.38
22031;BME280;11179;52.106;21.024;2022-12-10T14:21:56;99637.59;;;0.90;71.53
22031;BME280;11179;52.106;21.024;2022-12-10T14:24:34;99614.31;;;0.89;71.38
22031;BME280;11179;52.106;21.024;2022-12-10T14:27:16;99625.94;;;0.90;71.25
22031;BME280;11179;52.106;21.024;2022-12-10T14:29:50;99621.56;;;0.89;71.33
22031;BME280;11179;52.106;21.024;2022-12-10T14:32:24;99628.66;;;0.90;71.40
22031;BME280;11179;52.106;21.024;2022-12-10T14:34:54;99623.03;;;0.91;71.53
22031;BME280;11179;52.106;21.024;2022-12-10T14:37:25;99619.50;;;0.84;71.34
22031;BME280;11179;52.106;21.024;2022-12-10T14:39:52;99627.66;;;0.71;71.34
22031;BME280;11179;52.106;21.024;2022-12-10T14:42:18;99627.44;;;0.72;71.72
22031;BME280;11179;52.106;21.024;2022-12-10T14:44:44;99626.38;;;0.80;71.78
22031;BME280;11179;52.106;21.024;2022-12-10T14:47:19;99615.19;;;0.76;71.39
22031;BME280;11179;52.106;21.024;2022-12-10T14:49:47;99615.84;;;0.65;71.70
22031;BME280;11179;52.106;21.024;2022-12-10T14:52:19;99620.00;;;0.55;71.55
22031;BME280;11179;52.106;21.024;2022-12-10T14:54:45;99622.50;;;0.56;71.74
22031;BME280;11179;52.106;21.024;2022-12-10T14:57:22;99620.22;;;0.60;71.80
22031;BME280;11179;52.106;21.024;2022-12-10T15:00:19;99630.38;;;0.64;71.62